sensor_id;sensor_type;location;lat;lon;timestamp;temperature;humidity
39919;DHT22;25589;51.552;13.424;2023-07-13T00:00:44;24.10;76.40
39919;DHT22;25589;51.552;13.424;2023-07-13T00:03:09;24.10;76.00
39919;DHT22;25589;51.552;13.424;2023-07-13T00:05:39;24.00;75.60
39919;DHT22;25589;51.552;13.424;2023-07-13T00:08:06;23.90;75.40
39919;DHT22;25589;51.552;13.424;2023-07-13T00:10:33;23.90;75.40
39919;DHT22;25589;51.552;13.424;2023-07-13T00:12:59;23.80;75.40
39919;DHT22;25589;51.552;13.424;2023-07-13T00:15:26;23.80;75.60
39919;DHT22;25589;51.552;13.424;2023-07-13T00:17:53;23.70;75.80
39919;DHT22;25589;51.552;13.424;2023-07-13T00:20:20;23.70;76.30
39919;DHT22;25589;51.552;13.424;2023-07-13T00:22:51;23.60;76.60
39919;DHT22;25589;51.552;13.424;2023-07-13T00:25:22;23.50;77.00
39919;DHT22;25589;51.552;13.424;2023-07-13T00:27:50;23.40;77.80
39919;DHT22;25589;51.552;13.424;2023-07-13T00:30:16;23.20;78.20
39919;DHT22;25589;51.552;13.424;2023-07-13T00:32:42;23.10;78.30
39919;DHT22;25589;51.552;13.424;2023-07-13T00:35:08;23.10;78.10
39919;DHT22;25589;51.552;13.424;2023-07-13T00:37:34;23.20;78.10
39919;DHT22;25589;51.552;13.424;2023-07-13T00:40:02;23.10;77.90
39919;DHT22;25589;51.552;13.424;2023-07-13T00:42:28;23.10;78.10
39919;DHT22;25589;51.552;13.424;2023-07-13T00:47:33;23.10;78.40
39919;DHT22;25589;51.552;13.424;2023-07-13T00:49:59;23.10;78.40
39919;DHT22;25589;51.552;13.424;2023-07-13T00:52:26;23.10;79.20
39919;DHT22;25589;51.552;13.424;2023-07-13T00:54:53;23.10;80.10
39919;DHT22;25589;51.552;13.424;2023-07-13T00:57:20;23.00;81.10
39919;DHT22;25589;51.552;13.424;2023-07-13T00:59:50;22.90;81.60
39919;DHT22;25589;51.552;13.424;2023-07-13T01:02:17;22.90;81.80
39919;DHT22;25589;51.552;13.424;2023-07-13T01:04:42;22.90;82.30
39919;DHT22;25589;51.552;13.424;2023-07-13T01:07:11;22.80;83.10
39919;DHT22;25589;51.552;13.424;2023-07-13T01:09:37;22.70;84.10
39919;DHT22;25589;51.552;13.424;2023-07-13T01:12:03;22.60;85.40
39919;DHT22;25589;51.552;13.424;2023-07-13T01:14:29;22.60;85.10
39919;DHT22;25589;51.552;13.424;2023-07-13T01:16:55;22.60;84.50
39919;DHT22;25589;51.552;13.424;2023-07-13T01:19:25;22.70;83.90
39919;DHT22;25589;51.552;13.424;2023-07-13T01:22:07;22.70;83.80
39919;DHT22;25589;51.552;13.424;2023-07-13T01:24:38;22.70;82.70
39919;DHT22;25589;51.552;13.424;2023-07-13T01:27:04;22.60;82.80
39919;DHT22;25589;51.552;13.424;2023-07-13T01:29:32;22.60;83.00
39919;DHT22;25589;51.552;13.424;2023-07-13T01:31:59;22.40;83.10
39919;DHT22;25589;51.552;13.424;2023-07-13T01:34:26;22.30;83.50
39919;DHT22;25589;51.552;13.424;2023-07-13T01:36:53;22.30;84.10
39919;DHT22;25589;51.552;13.424;2023-07-13T01:39:21;22.30;84.70
39919;DHT22;25589;51.552;13.424;2023-07-13T01:41:47;22.10;85.70
39919;DHT22;25589;51.552;13.424;2023-07-13T01:44:12;22.10;86.20
39919;DHT22;25589;51.552;13.424;2023-07-13T01:46:38;22.10;86.40
39919;DHT22;25589;51.552;13.424;2023-07-13T01:49:04;22.10;85.40
39919;DHT22;25589;51.552;13.424;2023-07-13T01:51:29;22.30;85.40
39919;DHT22;25589;51.552;13.424;2023-07-13T01:53:55;22.40;84.80
39919;DHT22;25589;51.552;13.424;2023-07-13T01:56:20;22.50;84.70
39919;DHT22;25589;51.552;13.424;2023-07-13T01:58:47;22.60;83.40
39919;DHT22;25589;51.552;13.424;2023-07-13T02:01:12;22.60;83.10
39919;DHT22;25589;51.552;13.424;2023-07-13T02:03:38;22.60;83.70
39919;DHT22;25589;51.552;13.424;2023-07-13T02:06:03;22.60;83.80
39919;DHT22;25589;51.552;13.424;2023-07-13T02:08:29;22.60;84.00
39919;DHT22;25589;51.552;13.424;2023-07-13T02:10:54;22.40;84.50
39919;DHT22;25589;51.552;13.424;2023-07-13T02:13:20;22.30;85.60
39919;DHT22;25589;51.552;13.424;2023-07-13T02:15:46;22.30;87.40
39919;DHT22;25589;51.552;13.424;2023-07-13T02:18:11;22.00;89.70
39919;DHT22;25589;51.552;13.424;2023-07-13T02:20:39;21.70;89.00
39919;DHT22;25589;51.552;13.424;2023-07-13T02:23:05;21.70;88.40
39919;DHT22;25589;51.552;13.424;2023-07-13T02:25:30;21.70;87.70
39919;DHT22;25589;51.552;13.424;2023-07-13T02:27:56;21.70;87.70
39919;DHT22;25589;51.552;13.424;2023-07-13T02:30:22;21.70;88.60
39919;DHT22;25589;51.552;13.424;2023-07-13T02:32:53;21.80;90.40
39919;DHT22;25589;51.552;13.424;2023-07-13T02:35:18;21.80;91.30
39919;DHT22;25589;51.552;13.424;2023-07-13T02:37:44;21.70;92.70
39919;DHT22;25589;51.552;13.424;2023-07-13T02:40:10;21.60;93.90
39919;DHT22;25589;51.552;13.424;2023-07-13T02:42:35;21.50;95.00
39919;DHT22;25589;51.552;13.424;2023-07-13T02:45:01;21.30;96.00
39919;DHT22;25589;51.552;13.424;2023-07-13T02:47:27;21.30;97.00
39919;DHT22;25589;51.552;13.424;2023-07-13T02:49:52;21.30;97.90
39919;DHT22;25589;51.552;13.424;2023-07-13T02:52:20;21.20;98.80
39919;DHT22;25589;51.552;13.424;2023-07-13T02:54:45;21.20;99.40
39919;DHT22;25589;51.552;13.424;2023-07-13T02:57:11;21.20;99.90
39919;DHT22;25589;51.552;13.424;2023-07-13T02:59:36;21.10;99.90
39919;DHT22;25589;51.552;13.424;2023-07-13T03:02:03;21.00;99.90
39919;DHT22;25589;51.552;13.424;2023-07-13T03:04:29;21.00;99.90
39919;DHT22;25589;51.552;13.424;2023-07-13T03:06:54;20.90;99.90
39919;DHT22;25589;51.552;13.424;2023-07-13T03:09:25;20.80;99.90
39919;DHT22;25589;51.552;13.424;2023-07-13T03:11:55;20.70;99.90
39919;DHT22;25589;51.552;13.424;2023-07-13T03:14:27;20.80;99.90
39919;DHT22;25589;51.552;13.424;2023-07-13T03:16:53;20.90;99.90
39919;DHT22;25589;51.552;13.424;2023-07-13T03:19:21;20.80;99.90
39919;DHT22;25589;51.552;13.424;2023-07-13T03:21:49;20.70;99.90
39919;DHT22;25589;51.552;13.424;2023-07-13T03:24:15;20.50;99.90
39919;DHT22;25589;51.552;13.424;2023-07-13T03:26:41;20.40;99.90
39919;DHT22;25589;51.552;13.424;2023-07-13T03:29:06;20.50;99.90
39919;DHT22;25589;51.552;13.424;2023-07-13T03:31:35;20.40;99.90
39919;DHT22;25589;51.552;13.424;2023-07-13T03:34:01;20.40;99.90
39919;DHT22;25589;51.552;13.424;2023-07-13T03:36:30;20.40;99.90
39919;DHT22;25589;51.552;13.424;2023-07-13T03:39:00;20.30;99.90
39919;DHT22;25589;51.552;13.424;2023-07-13T03:41:35;20.30;99.90
39919;DHT22;25589;51.552;13.424;2023-07-13T03:44:00;20.30;99.90
39919;DHT22;25589;51.552;13.424;2023-07-13T03:46:27;20.30;99.90
39919;DHT22;25589;51.552;13.424;2023-07-13T03:48:52;20.30;99.90
39919;DHT22;25589;51.552;13.424;2023-07-13T03:51:19;20.20;99.90
39919;DHT22;25589;51.552;13.424;2023-07-13T03:53:45;20.30;99.90
39919;DHT22;25589;51.552;13.424;2023-07-13T03:56:14;20.20;99.90
39919;DHT22;25589;51.552;13.424;2023-07-13T03:58:42;19.90;99.90
39919;DHT22;25589;51.552;13.424;2023-07-13T04:01:15;19.70;99.90
39919;DHT22;25589;51.552;13.424;2023-07-13T04:03:41;19.60;99.90
39919;DHT22;25589;51.552;13.424;2023-07-13T04:06:12;19.50;99.90
39919;DHT22;25589;51.552;13.424;2023-07-13T04:08:40;19.40;99.90
39919;DHT22;25589;51.552;13.424;2023-07-13T04:11:06;19.40;99.90
39919;DHT22;25589;51.552;13.424;2023-07-13T04:13:32;19.40;99.90
39919;DHT22;25589;51.552;13.424;2023-07-13T04:15:58;19.40;99.90
39919;DHT22;25589;51.552;13.424;2023-07-13T04:18:23;19.30;99.90
39919;DHT22;25589;51.552;13.424;2023-07-13T04:20:50;19.60;99.90
39919;DHT22;25589;51.552;13.424;2023-07-13T04:23:17;19.60;99.90
39919;DHT22;25589;51.552;13.424;2023-07-13T04:25:46;19.80;99.90
39919;DHT22;25589;51.552;13.424;2023-07-13T04:28:15;19.60;99.90
39919;DHT22;25589;51.552;13.424;2023-07-13T04:30:41;19.50;99.90
39919;DHT22;25589;51.552;13.424;2023-07-13T04:33:06;19.50;99.90
39919;DHT22;25589;51.552;13.424;2023-07-13T04:35:34;19.60;99.90
39919;DHT22;25589;51.552;13.424;2023-07-13T04:38:00;19.80;99.90
39919;DHT22;25589;51.552;13.424;2023-07-13T04:40:27;19.70;99.90
39919;DHT22;25589;51.552;13.424;2023-07-13T04:42:53;19.70;99.90
39919;DHT22;25589;51.552;13.424;2023-07-13T04:45:19;19.70;99.90
39919;DHT22;25589;51.552;13.424;2023-07-13T04:47:44;19.60;99.90
39919;DHT22;25589;51.552;13.424;2023-07-13T04:50:13;19.50;99.90
39919;DHT22;25589;51.552;13.424;2023-07-13T04:52:44;19.40;99.90
39919;DHT22;25589;51.552;13.424;2023-07-13T04:55:10;19.40;99.90
39919;DHT22;25589;51.552;13.424;2023-07-13T04:57:36;19.40;99.90
39919;DHT22;25589;51.552;13.424;2023-07-13T05:00:02;19.60;99.90
39919;DHT22;25589;51.552;13.424;2023-07-13T05:02:33;19.80;99.90
39919;DHT22;25589;51.552;13.424;2023-07-13T05:04:59;20.00;99.90
39919;DHT22;25589;51.552;13.424;2023-07-13T05:07:26;20.20;99.90
39919;DHT22;25589;51.552;13.424;2023-07-13T05:09:52;20.20;99.90
39919;DHT22;25589;51.552;13.424;2023-07-13T05:12:18;20.30;99.90
39919;DHT22;25589;51.552;13.424;2023-07-13T05:14:43;20.30;99.90
39919;DHT22;25589;51.552;13.424;2023-07-13T05:17:09;20.90;99.90
39919;DHT22;25589;51.552;13.424;2023-07-13T05:19:35;20.40;99.90
39919;DHT22;25589;51.552;13.424;2023-07-13T05:22:00;20.50;99.90
39919;DHT22;25589;51.552;13.424;2023-07-13T05:24:28;20.50;99.90
39919;DHT22;25589;51.552;13.424;2023-07-13T05:26:54;20.50;99.90
39919;DHT22;25589;51.552;13.424;2023-07-13T05:29:20;20.40;99.90
39919;DHT22;25589;51.552;13.424;2023-07-13T05:31:46;20.40;99.90
39919;DHT22;25589;51.552;13.424;2023-07-13T05:34:12;20.40;99.90
39919;DHT22;25589;51.552;13.424;2023-07-13T05:36:37;20.50;99.90
39919;DHT22;25589;51.552;13.424;2023-07-13T05:39:03;20.50;99.90
39919;DHT22;25589;51.552;13.424;2023-07-13T05:41:30;20.50;99.90
39919;DHT22;25589;51.552;13.424;2023-07-13T05:43:56;20.50;99.90
39919;DHT22;25589;51.552;13.424;2023-07-13T05:46:21;20.50;99.90
39919;DHT22;25589;51.552;13.424;2023-07-13T05:48:48;20.60;99.90
39919;DHT22;25589;51.552;13.424;2023-07-13T05:51:13;20.60;99.90
39919;DHT22;25589;51.552;13.424;2023-07-13T05:53:39;20.70;99.90
39919;DHT22;25589;51.552;13.424;2023-07-13T05:56:05;20.80;99.90
39919;DHT22;25589;51.552;13.424;2023-07-13T05:58:31;20.80;99.90
39919;DHT22;25589;51.552;13.424;2023-07-13T06:01:05;20.90;99.90
39919;DHT22;25589;51.552;13.424;2023-07-13T06:03:31;21.00;99.90
39919;DHT22;25589;51.552;13.424;2023-07-13T06:05:57;21.10;99.90
39919;DHT22;25589;51.552;13.424;2023-07-13T06:08:22;21.20;99.90
39919;DHT22;25589;51.552;13.424;2023-07-13T06:10:48;21.30;99.90
39919;DHT22;25589;51.552;13.424;2023-07-13T06:13:14;21.40;99.90
39919;DHT22;25589;51.552;13.424;2023-07-13T06:15:39;21.50;99.90
39919;DHT22;25589;51.552;13.424;2023-07-13T06:18:05;21.50;99.90
39919;DHT22;25589;51.552;13.424;2023-07-13T06:20:30;21.60;99.90
39919;DHT22;25589;51.552;13.424;2023-07-13T06:22:58;21.60;99.90
39919;DHT22;25589;51.552;13.424;2023-07-13T06:25:24;21.70;99.90
39919;DHT22;25589;51.552;13.424;2023-07-13T06:27:49;21.80;99.90
39919;DHT22;25589;51.552;13.424;2023-07-13T06:30:15;21.90;99.90
39919;DHT22;25589;51.552;13.424;2023-07-13T06:32:40;21.90;99.90
39919;DHT22;25589;51.552;13.424;2023-07-13T06:35:06;22.00;99.90
39919;DHT22;25589;51.552;13.424;2023-07-13T06:37:32;22.10;99.90
39919;DHT22;25589;51.552;13.424;2023-07-13T06:39:58;22.20;99.90
39919;DHT22;25589;51.552;13.424;2023-07-13T06:42:24;22.40;99.90
39919;DHT22;25589;51.552;13.424;2023-07-13T06:44:49;22.50;99.90
39919;DHT22;25589;51.552;13.424;2023-07-13T06:47:15;22.70;99.90
39919;DHT22;25589;51.552;13.424;2023-07-13T06:49:40;22.80;99.90
39919;DHT22;25589;51.552;13.424;2023-07-13T06:52:06;22.90;99.90
39919;DHT22;25589;51.552;13.424;2023-07-13T06:54:31;23.10;99.90
39919;DHT22;25589;51.552;13.424;2023-07-13T06:56:57;23.30;99.90
39919;DHT22;25589;51.552;13.424;2023-07-13T06:59:22;23.30;99.90
39919;DHT22;25589;51.552;13.424;2023-07-13T07:01:48;23.30;99.90
39919;DHT22;25589;51.552;13.424;2023-07-13T07:04:13;23.30;99.90
39919;DHT22;25589;51.552;13.424;2023-07-13T07:06:39;23.30;99.90
39919;DHT22;25589;51.552;13.424;2023-07-13T07:09:04;23.30;99.90
39919;DHT22;25589;51.552;13.424;2023-07-13T07:11:30;23.30;99.90
39919;DHT22;25589;51.552;13.424;2023-07-13T07:13:56;23.30;99.90
39919;DHT22;25589;51.552;13.424;2023-07-13T07:16:21;23.30;99.90
39919;DHT22;25589;51.552;13.424;2023-07-13T07:18:47;23.40;99.90
39919;DHT22;25589;51.552;13.424;2023-07-13T07:21:13;23.50;99.90
39919;DHT22;25589;51.552;13.424;2023-07-13T07:23:39;23.60;99.90
39919;DHT22;25589;51.552;13.424;2023-07-13T07:26:05;23.70;99.90
39919;DHT22;25589;51.552;13.424;2023-07-13T07:28:30;23.80;99.90
39919;DHT22;25589;51.552;13.424;2023-07-13T07:30:57;23.70;99.50
39919;DHT22;25589;51.552;13.424;2023-07-13T07:33:24;23.70;99.40
39919;DHT22;25589;51.552;13.424;2023-07-13T07:35:49;23.80;98.90
39919;DHT22;25589;51.552;13.424;2023-07-13T07:38:15;23.90;99.30
39919;DHT22;25589;51.552;13.424;2023-07-13T07:40:41;24.00;98.60
39919;DHT22;25589;51.552;13.424;2023-07-13T07:43:08;24.10;98.20
39919;DHT22;25589;51.552;13.424;2023-07-13T07:45:34;24.10;97.50
39919;DHT22;25589;51.552;13.424;2023-07-13T07:48:00;24.10;97.80
39919;DHT22;25589;51.552;13.424;2023-07-13T07:50:27;24.20;96.90
39919;DHT22;25589;51.552;13.424;2023-07-13T07:52:52;24.10;97.00
39919;DHT22;25589;51.552;13.424;2023-07-13T07:55:18;24.00;96.90
39919;DHT22;25589;51.552;13.424;2023-07-13T07:57:44;24.10;96.10
39919;DHT22;25589;51.552;13.424;2023-07-13T08:00:10;24.30;95.70
39919;DHT22;25589;51.552;13.424;2023-07-13T08:02:41;24.50;96.00
39919;DHT22;25589;51.552;13.424;2023-07-13T08:05:08;24.60;95.50
39919;DHT22;25589;51.552;13.424;2023-07-13T08:07:33;24.70;95.30
39919;DHT22;25589;51.552;13.424;2023-07-13T08:09:59;24.80;95.40
39919;DHT22;25589;51.552;13.424;2023-07-13T08:12:25;24.90;95.30
39919;DHT22;25589;51.552;13.424;2023-07-13T08:14:50;24.90;94.80
39919;DHT22;25589;51.552;13.424;2023-07-13T08:17:20;24.90;94.70
39919;DHT22;25589;51.552;13.424;2023-07-13T08:19:45;24.60;94.80
39919;DHT22;25589;51.552;13.424;2023-07-13T08:22:11;24.60;94.90
39919;DHT22;25589;51.552;13.424;2023-07-13T08:24:37;24.60;94.90
39919;DHT22;25589;51.552;13.424;2023-07-13T08:27:02;24.70;94.50
39919;DHT22;25589;51.552;13.424;2023-07-13T08:29:28;24.70;94.20
39919;DHT22;25589;51.552;13.424;2023-07-13T08:31:54;24.80;94.30
39919;DHT22;25589;51.552;13.424;2023-07-13T08:34:19;25.00;93.90
39919;DHT22;25589;51.552;13.424;2023-07-13T08:36:46;25.30;93.50
39919;DHT22;25589;51.552;13.424;2023-07-13T08:39:11;25.30;92.90
39919;DHT22;25589;51.552;13.424;2023-07-13T08:41:37;25.40;92.40
39919;DHT22;25589;51.552;13.424;2023-07-13T08:44:05;25.40;92.10
39919;DHT22;25589;51.552;13.424;2023-07-13T08:46:38;25.70;92.50
39919;DHT22;25589;51.552;13.424;2023-07-13T08:49:12;25.90;91.50
39919;DHT22;25589;51.552;13.424;2023-07-13T08:51:42;26.00;91.00
39919;DHT22;25589;51.552;13.424;2023-07-13T08:54:34;26.20;90.30
39919;DHT22;25589;51.552;13.424;2023-07-13T08:57:11;26.20;90.20
39919;DHT22;25589;51.552;13.424;2023-07-13T08:59:38;26.20;89.80
39919;DHT22;25589;51.552;13.424;2023-07-13T09:02:51;26.00;88.30
39919;DHT22;25589;51.552;13.424;2023-07-13T09:04:59;25.70;90.10
39919;DHT22;25589;51.552;13.424;2023-07-13T09:07:34;25.60;90.10
39919;DHT22;25589;51.552;13.424;2023-07-13T09:17:51;25.40;90.00
39919;DHT22;25589;51.552;13.424;2023-07-13T09:20:34;25.50;90.40
39919;DHT22;25589;51.552;13.424;2023-07-13T09:23:04;25.70;88.30
39919;DHT22;25589;51.552;13.424;2023-07-13T09:25:35;25.70;87.70
39919;DHT22;25589;51.552;13.424;2023-07-13T09:28:15;26.00;85.80
39919;DHT22;25589;51.552;13.424;2023-07-13T09:30:56;26.20;84.10
39919;DHT22;25589;51.552;13.424;2023-07-13T09:33:22;26.50;84.70
39919;DHT22;25589;51.552;13.424;2023-07-13T09:35:48;26.60;82.50
39919;DHT22;25589;51.552;13.424;2023-07-13T09:38:19;26.70;81.80
39919;DHT22;25589;51.552;13.424;2023-07-13T09:43:34;26.90;80.10
39919;DHT22;25589;51.552;13.424;2023-07-13T09:46:00;26.80;80.40
39919;DHT22;25589;51.552;13.424;2023-07-13T09:48:34;26.80;79.90
39919;DHT22;25589;51.552;13.424;2023-07-13T09:51:12;26.80;77.70
39919;DHT22;25589;51.552;13.424;2023-07-13T09:53:42;26.30;78.40
39919;DHT22;25589;51.552;13.424;2023-07-13T09:56:28;26.10;78.90
39919;DHT22;25589;51.552;13.424;2023-07-13T09:58:56;26.00;79.40
39919;DHT22;25589;51.552;13.424;2023-07-13T10:01:38;25.90;77.60
39919;DHT22;25589;51.552;13.424;2023-07-13T10:04:13;26.10;79.30
39919;DHT22;25589;51.552;13.424;2023-07-13T10:06:41;26.30;79.70
39919;DHT22;25589;51.552;13.424;2023-07-13T10:09:08;26.30;80.30
39919;DHT22;25589;51.552;13.424;2023-07-13T10:11:36;26.40;79.60
39919;DHT22;25589;51.552;13.424;2023-07-13T10:14:18;26.70;78.80
39919;DHT22;25589;51.552;13.424;2023-07-13T10:16:46;27.00;78.60
39919;DHT22;25589;51.552;13.424;2023-07-13T10:19:14;27.20;76.00
39919;DHT22;25589;51.552;13.424;2023-07-13T10:21:54;27.30;75.50
39919;DHT22;25589;51.552;13.424;2023-07-13T10:24:26;27.50;76.00
39919;DHT22;25589;51.552;13.424;2023-07-13T10:29:34;27.90;73.30
39919;DHT22;25589;51.552;13.424;2023-07-13T10:32:01;27.70;73.00
39919;DHT22;25589;51.552;13.424;2023-07-13T10:34:27;27.70;72.70
39919;DHT22;25589;51.552;13.424;2023-07-13T10:36:53;27.50;68.50
39919;DHT22;25589;51.552;13.424;2023-07-13T10:39:22;27.30;67.30
39919;DHT22;25589;51.552;13.424;2023-07-13T10:42:01;27.00;66.50
39919;DHT22;25589;51.552;13.424;2023-07-13T10:44:30;26.60;64.90
39919;DHT22;25589;51.552;13.424;2023-07-13T10:47:00;26.40;66.20
39919;DHT22;25589;51.552;13.424;2023-07-13T10:49:28;26.40;66.70
39919;DHT22;25589;51.552;13.424;2023-07-13T10:51:55;26.20;66.70
39919;DHT22;25589;51.552;13.424;2023-07-13T10:54:21;26.00;67.60
39919;DHT22;25589;51.552;13.424;2023-07-13T10:56:53;26.00;67.20
39919;DHT22;25589;51.552;13.424;2023-07-13T10:59:32;26.10;67.30
39919;DHT22;25589;51.552;13.424;2023-07-13T11:04:43;26.60;66.90
39919;DHT22;25589;51.552;13.424;2023-07-13T11:07:25;26.50;66.10
39919;DHT22;25589;51.552;13.424;2023-07-13T11:09:56;26.50;66.80
39919;DHT22;25589;51.552;13.424;2023-07-13T11:22:45;26.70;68.40
39919;DHT22;25589;51.552;13.424;2023-07-13T11:25:32;26.80;70.10
39919;DHT22;25589;51.552;13.424;2023-07-13T11:30:42;27.10;69.30
39919;DHT22;25589;51.552;13.424;2023-07-13T11:33:16;27.40;69.80
39919;DHT22;25589;51.552;13.424;2023-07-13T11:40:55;28.50;63.60
39919;DHT22;25589;51.552;13.424;2023-07-13T11:43:22;28.60;63.70
39919;DHT22;25589;51.552;13.424;2023-07-13T11:45:50;28.40;62.30
39919;DHT22;25589;51.552;13.424;2023-07-13T11:48:34;28.30;62.50
39919;DHT22;25589;51.552;13.424;2023-07-13T11:51:03;28.10;62.30
39919;DHT22;25589;51.552;13.424;2023-07-13T11:53:38;28.00;63.50
39919;DHT22;25589;51.552;13.424;2023-07-13T11:56:05;28.00;62.50
39919;DHT22;25589;51.552;13.424;2023-07-13T11:58:31;27.50;62.20
39919;DHT22;25589;51.552;13.424;2023-07-13T12:00:59;27.50;63.10
39919;DHT22;25589;51.552;13.424;2023-07-13T12:03:27;27.70;62.70
39919;DHT22;25589;51.552;13.424;2023-07-13T12:06:01;27.60;61.90
39919;DHT22;25589;51.552;13.424;2023-07-13T12:08:27;27.40;63.40
39919;DHT22;25589;51.552;13.424;2023-07-13T12:10:58;27.60;62.40
39919;DHT22;25589;51.552;13.424;2023-07-13T12:13:27;27.70;61.50
39919;DHT22;25589;51.552;13.424;2023-07-13T12:15:53;27.70;61.10
39919;DHT22;25589;51.552;13.424;2023-07-13T12:18:22;28.00;60.60
39919;DHT22;25589;51.552;13.424;2023-07-13T12:20:50;28.40;59.80
39919;DHT22;25589;51.552;13.424;2023-07-13T12:23:31;28.70;59.20
39919;DHT22;25589;51.552;13.424;2023-07-13T12:26:00;28.70;58.30
39919;DHT22;25589;51.552;13.424;2023-07-13T12:28:38;28.60;58.40
39919;DHT22;25589;51.552;13.424;2023-07-13T12:31:07;28.60;59.40
39919;DHT22;25589;51.552;13.424;2023-07-13T12:33:44;28.60;59.90
39919;DHT22;25589;51.552;13.424;2023-07-13T12:36:10;28.50;58.70
39919;DHT22;25589;51.552;13.424;2023-07-13T12:38:37;28.20;58.00
39919;DHT22;25589;51.552;13.424;2023-07-13T12:41:03;28.10;57.50
39919;DHT22;25589;51.552;13.424;2023-07-13T12:43:33;28.30;56.90
39919;DHT22;25589;51.552;13.424;2023-07-13T12:46:04;28.80;56.80
39919;DHT22;25589;51.552;13.424;2023-07-13T12:48:41;29.40;55.80
39919;DHT22;25589;51.552;13.424;2023-07-13T12:51:12;29.70;53.40
39919;DHT22;25589;51.552;13.424;2023-07-13T12:54:05;30.00;53.10
39919;DHT22;25589;51.552;13.424;2023-07-13T12:56:33;30.00;52.20
39919;DHT22;25589;51.552;13.424;2023-07-13T12:59:02;29.70;52.30
39919;DHT22;25589;51.552;13.424;2023-07-13T13:01:31;29.20;52.60
39919;DHT22;25589;51.552;13.424;2023-07-13T13:04:01;28.80;53.00
39919;DHT22;25589;51.552;13.424;2023-07-13T13:06:29;28.60;53.90
39919;DHT22;25589;51.552;13.424;2023-07-13T13:08:59;28.50;53.60
39919;DHT22;25589;51.552;13.424;2023-07-13T13:11:26;28.50;55.00
39919;DHT22;25589;51.552;13.424;2023-07-13T13:13:52;28.40;54.20
39919;DHT22;25589;51.552;13.424;2023-07-13T13:18:49;28.40;55.50
39919;DHT22;25589;51.552;13.424;2023-07-13T13:21:16;28.40;55.40
39919;DHT22;25589;51.552;13.424;2023-07-13T13:23:43;28.60;54.70
39919;DHT22;25589;51.552;13.424;2023-07-13T13:26:14;28.50;54.00
39919;DHT22;25589;51.552;13.424;2023-07-13T13:28:43;28.30;54.40
39919;DHT22;25589;51.552;13.424;2023-07-13T13:31:13;28.10;55.30
39919;DHT22;25589;51.552;13.424;2023-07-13T13:33:44;28.10;56.10
39919;DHT22;25589;51.552;13.424;2023-07-13T13:36:19;28.30;55.20
39919;DHT22;25589;51.552;13.424;2023-07-13T13:38:45;28.50;54.80
39919;DHT22;25589;51.552;13.424;2023-07-13T13:41:12;28.50;55.20
39919;DHT22;25589;51.552;13.424;2023-07-13T13:43:39;28.90;54.50
39919;DHT22;25589;51.552;13.424;2023-07-13T13:46:13;28.60;53.90
39919;DHT22;25589;51.552;13.424;2023-07-13T13:48:39;28.30;54.20
39919;DHT22;25589;51.552;13.424;2023-07-13T13:51:19;28.30;54.80
39919;DHT22;25589;51.552;13.424;2023-07-13T13:53:46;28.70;54.60
39919;DHT22;25589;51.552;13.424;2023-07-13T13:56:12;29.00;54.00
39919;DHT22;25589;51.552;13.424;2023-07-13T13:58:38;29.00;53.50
39919;DHT22;25589;51.552;13.424;2023-07-13T14:01:04;28.90;53.60
39919;DHT22;25589;51.552;13.424;2023-07-13T14:03:34;29.40;53.50
39919;DHT22;25589;51.552;13.424;2023-07-13T14:05:59;29.70;52.50
39919;DHT22;25589;51.552;13.424;2023-07-13T14:08:26;29.50;52.50
39919;DHT22;25589;51.552;13.424;2023-07-13T14:10:53;29.20;52.10
39919;DHT22;25589;51.552;13.424;2023-07-13T14:13:25;29.00;52.70
39919;DHT22;25589;51.552;13.424;2023-07-13T14:15:52;29.30;51.60
39919;DHT22;25589;51.552;13.424;2023-07-13T14:18:18;29.50;51.00
39919;DHT22;25589;51.552;13.424;2023-07-13T14:20:48;29.50;51.00
39919;DHT22;25589;51.552;13.424;2023-07-13T14:23:15;29.30;50.90
39919;DHT22;25589;51.552;13.424;2023-07-13T14:25:50;29.20;51.60
39919;DHT22;25589;51.552;13.424;2023-07-13T14:28:21;29.30;51.50
39919;DHT22;25589;51.552;13.424;2023-07-13T14:30:47;29.30;51.40
39919;DHT22;25589;51.552;13.424;2023-07-13T14:33:13;29.60;51.90
39919;DHT22;25589;51.552;13.424;2023-07-13T14:35:39;29.70;50.80
39919;DHT22;25589;51.552;13.424;2023-07-13T14:38:05;29.60;50.90
39919;DHT22;25589;51.552;13.424;2023-07-13T14:40:34;29.80;50.60
39919;DHT22;25589;51.552;13.424;2023-07-13T14:43:00;29.70;51.30
39919;DHT22;25589;51.552;13.424;2023-07-13T14:45:26;29.70;50.50
39919;DHT22;25589;51.552;13.424;2023-07-13T14:47:51;30.00;51.30
39919;DHT22;25589;51.552;13.424;2023-07-13T14:50:20;30.30;49.60
39919;DHT22;25589;51.552;13.424;2023-07-13T14:52:47;30.30;49.90
39919;DHT22;25589;51.552;13.424;2023-07-13T14:55:15;30.20;49.30
39919;DHT22;25589;51.552;13.424;2023-07-13T14:57:41;30.20;49.60
39919;DHT22;25589;51.552;13.424;2023-07-13T15:00:13;30.00;49.20
39919;DHT22;25589;51.552;13.424;2023-07-13T15:02:42;29.70;49.30
39919;DHT22;25589;51.552;13.424;2023-07-13T15:05:15;29.50;49.40
39919;DHT22;25589;51.552;13.424;2023-07-13T15:07:41;29.30;49.70
39919;DHT22;25589;51.552;13.424;2023-07-13T15:10:22;29.00;49.90
39919;DHT22;25589;51.552;13.424;2023-07-13T15:12:48;29.30;50.20
39919;DHT22;25589;51.552;13.424;2023-07-13T15:15:13;29.80;50.20
39919;DHT22;25589;51.552;13.424;2023-07-13T15:17:44;30.40;48.80
39919;DHT22;25589;51.552;13.424;2023-07-13T15:20:28;30.30;48.90
39919;DHT22;25589;51.552;13.424;2023-07-13T15:22:55;30.10;48.00
39919;DHT22;25589;51.552;13.424;2023-07-13T15:25:24;29.90;48.00
39919;DHT22;25589;51.552;13.424;2023-07-13T15:27:51;30.10;48.50
39919;DHT22;25589;51.552;13.424;2023-07-13T15:30:16;30.30;47.40
39919;DHT22;25589;51.552;13.424;2023-07-13T15:32:43;30.50;48.50
39919;DHT22;25589;51.552;13.424;2023-07-13T15:35:17;30.20;48.20
39919;DHT22;25589;51.552;13.424;2023-07-13T15:37:43;30.40;48.20
39919;DHT22;25589;51.552;13.424;2023-07-13T15:40:10;30.10;48.00
39919;DHT22;25589;51.552;13.424;2023-07-13T15:42:37;29.90;48.80
39919;DHT22;25589;51.552;13.424;2023-07-13T15:45:04;29.90;48.50
39919;DHT22;25589;51.552;13.424;2023-07-13T15:47:31;29.60;48.80
39919;DHT22;25589;51.552;13.424;2023-07-13T15:49:57;29.20;48.90
39919;DHT22;25589;51.552;13.424;2023-07-13T15:52:24;28.70;50.00
39919;DHT22;25589;51.552;13.424;2023-07-13T15:54:50;28.50;50.20
39919;DHT22;25589;51.552;13.424;2023-07-13T15:57:16;29.00;49.70
39919;DHT22;25589;51.552;13.424;2023-07-13T15:59:43;29.90;48.60